createdAt,value
2018-12-31T00:00:28.543Z,13.78
2018-12-31T00:02:56.961Z,15.10
2018-12-31T00:05:28.735Z,13.00
2018-12-31T00:07:57.190Z,14.00
2018-12-31T00:10:25.659Z,13.40
2018-12-31T00:12:54.131Z,13.13
2018-12-31T00:15:22.535Z,14.23
2018-12-31T00:17:50.959Z,13.85
2018-12-31T00:20:23.079Z,13.83
2018-12-31T00:22:51.518Z,14.40
2018-12-31T00:25:19.945Z,14.23
2018-12-31T00:27:49.294Z,16.50
2018-12-31T00:30:19.398Z,12.47
2018-12-31T00:32:47.815Z,13.40
2018-12-31T00:35:16.233Z,15.00
2018-12-31T00:37:44.685Z,14.40
2018-12-31T00:40:13.223Z,12.13
2018-12-31T00:42:41.967Z,14.20
2018-12-31T00:45:10.385Z,14.50
2018-12-31T00:47:39.493Z,14.78
2018-12-31T00:50:12.424Z,13.23
2018-12-31T00:52:40.929Z,11.57
2018-12-31T00:55:09.899Z,14.18
2018-12-31T00:57:38.333Z,13.70
2018-12-31T01:00:07.018Z,13.50
2018-12-31T01:02:35.467Z,13.65
2018-12-31T01:05:04.966Z,15.87
2018-12-31T01:07:33.462Z,13.15
2018-12-31T01:10:01.907Z,13.88
2018-12-31T01:12:30.376Z,14.18
2018-12-31T01:14:59.816Z,13.62
2018-12-31T01:17:28.226Z,15.28
2018-12-31T01:19:56.655Z,15.20
2018-12-31T01:22:25.090Z,14.90
2018-12-31T01:24:53.549Z,14.15
2018-12-31T01:27:21.967Z,15.60
2018-12-31T01:29:50.427Z,17.12
2018-12-31T01:32:19.409Z,15.63
2018-12-31T01:34:47.820Z,14.07
2018-12-31T01:37:19.802Z,14.23
2018-12-31T01:39:48.210Z,15.08
2018-12-31T01:42:16.630Z,15.70
2018-12-31T01:44:45.078Z,15.48
2018-12-31T01:47:13.504Z,13.53
2018-12-31T01:49:41.910Z,15.70
2018-12-31T01:52:10.336Z,15.20
2018-12-31T01:54:38.767Z,14.18
2018-12-31T01:57:07.277Z,15.27
2018-12-31T01:59:35.679Z,14.70
2018-12-31T02:02:04.604Z,14.43
2018-12-31T02:04:33.052Z,14.90
2018-12-31T02:07:01.467Z,14.75
2018-12-31T02:09:29.882Z,15.20
2018-12-31T02:11:58.336Z,17.30
2018-12-31T02:14:26.750Z,15.27
2018-12-31T02:16:55.215Z,16.00
2018-12-31T02:19:24.605Z,16.37
2018-12-31T02:21:57.158Z,15.90
2018-12-31T02:24:25.625Z,16.30
2018-12-31T02:26:54.963Z,17.33
2018-12-31T02:29:23.380Z,17.43
2018-12-31T02:31:51.831Z,16.67
2018-12-31T02:34:20.251Z,17.10
2018-12-31T02:36:48.700Z,15.10
2018-12-31T02:39:17.147Z,16.40
2018-12-31T02:41:45.566Z,16.83
2018-12-31T02:44:14.023Z,15.00
2018-12-31T02:46:42.440Z,17.82
2018-12-31T02:49:10.908Z,14.07
2018-12-31T02:51:39.655Z,15.85
2018-12-31T02:54:08.103Z,14.73
2018-12-31T02:56:36.531Z,14.60
2018-12-31T02:59:04.988Z,14.13
2018-12-31T03:01:33.461Z,15.03
2018-12-31T03:04:01.886Z,17.23
2018-12-31T03:06:30.323Z,14.50
2018-12-31T03:08:59.740Z,15.93
2018-12-31T03:11:28.237Z,15.70
2018-12-31T03:13:56.651Z,14.07
2018-12-31T03:16:25.149Z,13.58
2018-12-31T03:18:53.612Z,15.58
2018-12-31T03:21:22.031Z,12.30
2018-12-31T03:23:50.476Z,12.90
2018-12-31T03:26:19.124Z,14.73
2018-12-31T03:28:47.578Z,12.43
2018-12-31T03:31:15.988Z,14.30
2018-12-31T03:33:44.394Z,13.60
2018-12-31T03:36:12.837Z,13.77
2018-12-31T03:38:41.393Z,14.45
2018-12-31T03:41:09.845Z,13.93
2018-12-31T03:43:39.080Z,15.15
2018-12-31T03:46:07.528Z,14.03
2018-12-31T03:48:35.959Z,12.90
2018-12-31T03:51:04.386Z,13.50
2018-12-31T03:53:32.803Z,13.70
2018-12-31T03:56:01.255Z,11.77
2018-12-31T03:58:29.714Z,11.43
2018-12-31T04:00:58.531Z,12.25
2018-12-31T04:03:26.970Z,12.80
2018-12-31T04:05:55.388Z,12.80
2018-12-31T04:08:23.809Z,12.27
2018-12-31T04:10:52.408Z,11.03
2018-12-31T04:13:20.831Z,12.60
2018-12-31T04:15:49.441Z,11.83
2018-12-31T04:18:18.479Z,11.25
2018-12-31T04:20:46.931Z,11.18
2018-12-31T04:23:15.427Z,10.53
2018-12-31T04:25:44.277Z,12.37
2018-12-31T04:28:13.501Z,10.82
2018-12-31T04:30:41.931Z,10.30
2018-12-31T04:33:10.352Z,11.57
2018-12-31T04:35:38.801Z,9.40
2018-12-31T04:38:07.219Z,12.33
2018-12-31T04:40:35.635Z,10.27
2018-12-31T04:43:04.084Z,8.90
2018-12-31T04:45:33.175Z,11.97
2018-12-31T04:48:01.592Z,9.60
2018-12-31T04:50:30.005Z,10.20
2018-12-31T04:52:58.462Z,10.97
2018-12-31T04:55:27.777Z,10.85
2018-12-31T04:57:56.195Z,10.30
2018-12-31T05:00:24.635Z,10.10
2018-12-31T05:02:53.067Z,11.30
2018-12-31T05:05:21.516Z,9.53
2018-12-31T05:07:49.930Z,10.23
2018-12-31T05:10:18.346Z,9.30
2018-12-31T05:12:46.780Z,10.50
2018-12-31T05:15:15.227Z,9.97
2018-12-31T05:17:43.707Z,10.97
2018-12-31T05:20:12.371Z,10.68
2018-12-31T05:22:40.782Z,11.30
2018-12-31T05:25:12.651Z,11.83
2018-12-31T05:27:41.095Z,11.80
2018-12-31T05:30:09.527Z,10.80
2018-12-31T05:32:37.996Z,10.00
2018-12-31T05:35:06.427Z,9.70
2018-12-31T05:37:34.839Z,10.72
2018-12-31T05:40:07.813Z,10.70
2018-12-31T05:42:36.256Z,11.25
2018-12-31T05:45:05.116Z,11.23
2018-12-31T05:47:33.531Z,10.80
2018-12-31T05:50:01.989Z,12.03
2018-12-31T05:52:30.400Z,10.60
2018-12-31T05:54:58.885Z,9.80
2018-12-31T05:57:27.939Z,10.15
2018-12-31T05:59:56.365Z,9.50
2018-12-31T06:02:24.795Z,10.60
2018-12-31T06:04:53.626Z,11.03
2018-12-31T06:07:22.846Z,9.60
2018-12-31T06:09:51.304Z,10.00
2018-12-31T06:12:19.710Z,11.07
2018-12-31T06:14:48.121Z,9.83
2018-12-31T06:17:16.571Z,9.30
2018-12-31T06:19:44.983Z,8.70
2018-12-31T06:22:13.403Z,9.88
2018-12-31T06:24:42.791Z,9.97
2018-12-31T06:27:11.352Z,9.63
2018-12-31T06:29:39.807Z,9.03
2018-12-31T06:32:08.220Z,9.67
2018-12-31T06:34:36.665Z,8.37
2018-12-31T06:37:05.093Z,8.50
2018-12-31T06:39:33.574Z,8.73
2018-12-31T06:42:02.454Z,8.60
2018-12-31T06:44:30.875Z,8.15
2018-12-31T06:46:59.291Z,8.80
2018-12-31T06:49:27.774Z,12.53
2018-12-31T06:51:56.281Z,8.17
2018-12-31T06:54:24.857Z,6.83
2018-12-31T06:56:53.271Z,9.07
2018-12-31T06:59:22.494Z,7.28
2018-12-31T07:01:50.917Z,8.83
2018-12-31T07:04:19.351Z,8.57
2018-12-31T07:06:47.805Z,7.83
2018-12-31T07:09:16.230Z,9.70
2018-12-31T07:11:44.721Z,8.27
2018-12-31T07:14:13.237Z,7.43
2018-12-31T07:16:41.987Z,7.93
2018-12-31T07:19:10.414Z,9.07
2018-12-31T07:21:38.848Z,7.70
2018-12-31T07:24:07.274Z,6.43
2018-12-31T07:26:39.906Z,9.07
2018-12-31T07:29:08.338Z,7.47
2018-12-31T07:31:37.562Z,7.72
2018-12-31T07:34:06.059Z,7.65
2018-12-31T07:36:34.518Z,6.67
2018-12-31T07:39:02.946Z,6.40
2018-12-31T07:41:31.431Z,7.40
2018-12-31T07:43:59.872Z,8.87
2018-12-31T07:46:28.273Z,7.27
2018-12-31T07:48:57.613Z,8.13
2018-12-31T07:51:26.050Z,8.93
2018-12-31T07:53:54.498Z,8.60
2018-12-31T07:56:22.932Z,8.20
2018-12-31T07:58:51.518Z,8.30
2018-12-31T08:01:20.161Z,7.28
2018-12-31T08:03:48.558Z,8.33
2018-12-31T08:06:17.011Z,7.40
2018-12-31T08:08:45.447Z,7.85
2018-12-31T08:11:13.889Z,7.08
2018-12-31T08:13:42.358Z,6.30
2018-12-31T08:16:10.799Z,8.45
2018-12-31T08:18:39.228Z,6.57
2018-12-31T08:21:07.675Z,6.13
2018-12-31T08:23:38.567Z,6.80
2018-12-31T08:26:07.005Z,5.80
2018-12-31T08:28:35.427Z,6.62
2018-12-31T08:31:03.868Z,7.40
2018-12-31T08:33:32.275Z,7.43
2018-12-31T08:36:00.728Z,7.53
2018-12-31T08:38:29.148Z,5.37
2018-12-31T08:40:57.569Z,7.97
2018-12-31T08:43:26.024Z,6.45
2018-12-31T08:45:54.449Z,6.60
2018-12-31T08:48:22.854Z,7.73
2018-12-31T08:50:51.461Z,8.88
2018-12-31T08:53:19.945Z,6.78
2018-12-31T08:55:48.497Z,6.20
2018-12-31T08:58:16.902Z,6.90
2018-12-31T09:00:45.344Z,6.97
2018-12-31T09:03:13.927Z,7.70
2018-12-31T09:05:42.355Z,6.47
2018-12-31T09:08:11.516Z,8.48
2018-12-31T09:10:39.978Z,7.77
2018-12-31T09:13:08.452Z,7.58
2018-12-31T09:15:36.905Z,7.08
2018-12-31T09:18:06.042Z,7.10
2018-12-31T09:20:34.528Z,6.78
2018-12-31T09:23:02.966Z,7.03
2018-12-31T09:25:31.496Z,5.53
2018-12-31T09:27:59.968Z,7.40
2018-12-31T09:30:28.406Z,5.80
2018-12-31T09:32:56.815Z,6.40
2018-12-31T09:35:26.115Z,7.00
2018-12-31T09:37:54.538Z,5.23
2018-12-31T09:40:22.976Z,6.53
2018-12-31T09:42:51.438Z,5.80
2018-12-31T09:45:19.871Z,5.60
2018-12-31T09:47:48.279Z,5.30
2018-12-31T09:50:16.722Z,6.43
2018-12-31T09:52:45.611Z,6.33
2018-12-31T09:55:14.064Z,6.63
2018-12-31T09:57:42.505Z,6.70
2018-12-31T10:00:10.914Z,6.37
2018-12-31T10:02:39.386Z,6.13
2018-12-31T10:05:07.999Z,7.07
2018-12-31T10:07:36.412Z,6.33
2018-12-31T10:10:05.974Z,5.90
2018-12-31T10:12:35.303Z,5.72
2018-12-31T10:15:04.293Z,6.70
2018-12-31T10:17:32.741Z,5.87
2018-12-31T10:20:01.227Z,6.97
2018-12-31T10:22:30.588Z,6.53
2018-12-31T10:24:59.019Z,6.70
2018-12-31T10:27:27.485Z,5.43
2018-12-31T10:29:55.919Z,5.50
2018-12-31T10:32:24.338Z,5.78
2018-12-31T10:34:52.769Z,5.80
2018-12-31T10:37:21.219Z,6.20
2018-12-31T10:39:50.588Z,8.00
2018-12-31T10:42:19.206Z,7.27
2018-12-31T10:44:51.843Z,6.17
2018-12-31T10:47:20.978Z,6.85
2018-12-31T10:49:49.410Z,6.30
2018-12-31T10:52:17.838Z,7.47
2018-12-31T10:54:46.250Z,7.57
2018-12-31T10:57:14.698Z,7.10
2018-12-31T10:59:43.186Z,8.33
2018-12-31T11:02:11.594Z,8.00
2018-12-31T11:04:41.012Z,8.13
2018-12-31T11:07:09.428Z,6.70
2018-12-31T11:09:38.050Z,8.60
2018-12-31T11:12:06.738Z,9.20
2018-12-31T11:14:35.837Z,9.38
2018-12-31T11:17:07.263Z,9.43
2018-12-31T11:19:36.318Z,8.33
2018-12-31T11:22:04.741Z,7.80
2018-12-31T11:24:33.200Z,8.60
2018-12-31T11:27:01.612Z,8.65
2018-12-31T11:29:30.059Z,7.27
2018-12-31T11:31:58.476Z,9.03
2018-12-31T11:34:26.915Z,9.35
2018-12-31T11:36:55.963Z,10.45
2018-12-31T11:39:24.447Z,8.57
2018-12-31T11:41:52.875Z,8.10
2018-12-31T11:44:21.353Z,7.10
2018-12-31T11:46:49.763Z,7.40
2018-12-31T11:49:18.235Z,7.33
2018-12-31T11:51:46.746Z,7.60
2018-12-31T11:54:16.110Z,5.27
2018-12-31T11:56:44.529Z,7.05
2018-12-31T11:59:12.989Z,6.27
2018-12-31T12:01:41.399Z,6.20
2018-12-31T12:04:09.848Z,6.83
2018-12-31T12:06:38.418Z,6.30
2018-12-31T12:09:07.071Z,5.97
2018-12-31T12:11:35.532Z,6.50
2018-12-31T12:14:03.962Z,5.87
2018-12-31T12:16:32.658Z,5.93
2018-12-31T12:19:01.150Z,5.63
2018-12-31T12:21:30.510Z,6.08
2018-12-31T12:23:58.923Z,5.70
2018-12-31T12:26:27.410Z,4.97
2018-12-31T12:28:55.888Z,5.83
2018-12-31T12:31:24.291Z,6.92
2018-12-31T12:33:53.044Z,5.87
2018-12-31T12:36:21.539Z,6.17
2018-12-31T12:38:50.532Z,5.22
2018-12-31T12:41:18.972Z,6.20
2018-12-31T12:43:47.447Z,6.90
2018-12-31T12:46:15.889Z,4.00
2018-12-31T12:48:44.316Z,5.90
2018-12-31T12:51:12.742Z,6.77
2018-12-31T12:53:41.517Z,5.80
2018-12-31T12:56:10.106Z,6.10
2018-12-31T12:58:39.183Z,6.87
2018-12-31T13:01:07.610Z,6.90
2018-12-31T13:03:36.035Z,7.83
2018-12-31T13:06:05.263Z,6.14
2018-12-31T13:08:33.702Z,6.87
2018-12-31T13:11:02.726Z,7.95
2018-12-31T13:13:31.143Z,7.60
2018-12-31T13:16:00.364Z,7.58
2018-12-31T13:18:29.119Z,7.42
2018-12-31T13:20:57.655Z,7.40
2018-12-31T13:23:26.648Z,10.13
2018-12-31T13:25:55.267Z,7.92
2018-12-31T13:28:23.831Z,5.60
2018-12-31T13:30:52.282Z,6.92
2018-12-31T13:33:20.691Z,5.70
2018-12-31T13:35:50.309Z,6.00
2018-12-31T13:38:18.828Z,6.30
2018-12-31T13:40:47.250Z,7.33
2018-12-31T13:43:15.664Z,6.20
2018-12-31T13:45:44.208Z,7.30
2018-12-31T13:48:13.155Z,8.57
2018-12-31T13:50:41.636Z,7.80
2018-12-31T13:53:10.062Z,7.70
2018-12-31T13:55:38.496Z,10.55
2018-12-31T13:58:06.915Z,7.07
2018-12-31T14:00:35.355Z,6.20
2018-12-31T14:03:08.413Z,7.75
2018-12-31T14:05:36.806Z,7.13
2018-12-31T14:08:05.370Z,7.47
2018-12-31T14:10:33.943Z,8.13
2018-12-31T14:13:02.959Z,6.73
2018-12-31T14:15:31.440Z,7.70
2018-12-31T14:18:00.335Z,8.10
2018-12-31T14:20:28.756Z,7.80
2018-12-31T14:22:57.171Z,6.83
2018-12-31T14:25:26.225Z,7.60
2018-12-31T14:27:55.422Z,7.06
2018-12-31T14:30:23.914Z,8.20
2018-12-31T14:32:52.333Z,7.57
2018-12-31T14:35:20.846Z,7.27
2018-12-31T14:37:50.260Z,8.28
2018-12-31T14:40:18.683Z,8.00
2018-12-31T14:42:47.110Z,7.93
2018-12-31T14:45:15.560Z,8.03
2018-12-31T14:47:44.377Z,8.60
2018-12-31T14:50:12.792Z,8.75
2018-12-31T14:52:41.260Z,9.60
2018-12-31T14:55:10.426Z,9.45
2018-12-31T14:57:38.995Z,8.00
2018-12-31T15:00:10.361Z,8.90
2018-12-31T15:02:39.312Z,9.60
2018-12-31T15:05:07.771Z,8.93
2018-12-31T15:07:36.198Z,9.63
2018-12-31T15:10:06.269Z,8.70
2018-12-31T15:12:35.135Z,9.50
2018-12-31T15:15:05.817Z,8.93
2018-12-31T15:17:34.341Z,9.03
2018-12-31T15:20:02.835Z,10.08
2018-12-31T15:22:31.254Z,8.90
2018-12-31T15:24:59.706Z,9.13
2018-12-31T15:27:28.135Z,10.27
2018-12-31T15:29:56.543Z,9.70
2018-12-31T15:32:25.012Z,9.20
2018-12-31T15:34:57.407Z,10.00
2018-12-31T15:37:26.421Z,10.53
2018-12-31T15:39:55.249Z,11.57
2018-12-31T15:42:23.680Z,11.22
2018-12-31T15:44:52.306Z,10.53
2018-12-31T15:47:21.679Z,11.80
2018-12-31T15:49:50.103Z,11.28
2018-12-31T15:52:18.559Z,10.73
2018-12-31T15:54:46.974Z,10.77
2018-12-31T15:57:15.396Z,11.90
2018-12-31T15:59:43.846Z,11.17
2018-12-31T16:02:12.259Z,12.90
2018-12-31T16:04:40.680Z,10.85
2018-12-31T16:07:09.119Z,52.90
2018-12-31T16:09:37.542Z,29.70
2018-12-31T16:12:06.348Z,23.16
2018-12-31T16:14:34.793Z,15.72
2018-12-31T16:17:03.292Z,12.68
2018-12-31T16:19:32.283Z,11.35
2018-12-31T16:22:01.278Z,13.80
2018-12-31T16:24:29.705Z,15.13
2018-12-31T16:26:58.198Z,13.17
2018-12-31T16:29:26.644Z,12.63
2018-12-31T16:31:56.387Z,12.90
2018-12-31T16:34:24.801Z,15.70
2018-12-31T16:36:56.139Z,14.37
2018-12-31T16:39:24.614Z,15.17
2018-12-31T16:41:53.074Z,15.87
2018-12-31T16:44:21.930Z,16.07
2018-12-31T16:46:50.436Z,19.20
2018-12-31T16:49:18.843Z,17.70
2018-12-31T16:51:47.258Z,17.45
2018-12-31T16:54:15.727Z,17.37
2018-12-31T16:56:44.138Z,16.53
2018-12-31T16:59:12.567Z,16.90
2018-12-31T17:01:41.411Z,16.76
2018-12-31T17:04:09.839Z,16.07
2018-12-31T17:06:41.313Z,16.00
2018-12-31T17:09:09.733Z,14.15
2018-12-31T17:11:38.142Z,16.77
2018-12-31T17:14:06.966Z,17.25
2018-12-31T17:16:35.394Z,14.77
2018-12-31T17:19:03.810Z,16.50
2018-12-31T17:21:35.678Z,17.45
2018-12-31T17:24:04.087Z,16.87
2018-12-31T17:26:32.641Z,77.10
2018-12-31T17:29:01.055Z,21.20
2018-12-31T17:31:29.466Z,18.80
2018-12-31T17:33:57.911Z,15.73
2018-12-31T17:36:26.798Z,15.23
2018-12-31T17:38:55.230Z,17.73
2018-12-31T17:41:23.690Z,13.90
2018-12-31T17:43:52.120Z,16.10
2018-12-31T17:46:20.583Z,15.17
2018-12-31T17:48:49.710Z,14.93
2018-12-31T17:51:18.152Z,17.00
2018-12-31T17:53:46.563Z,18.30
2018-12-31T17:56:15.027Z,16.62
2018-12-31T17:58:43.467Z,15.10
2018-12-31T18:01:11.893Z,13.73
2018-12-31T18:03:40.454Z,15.83
2018-12-31T18:06:09.060Z,17.95
2018-12-31T18:08:37.541Z,16.87
2018-12-31T18:11:06.435Z,16.80
2018-12-31T18:13:34.839Z,15.80
2018-12-31T18:16:03.488Z,16.77
2018-12-31T18:18:31.914Z,15.30
2018-12-31T18:21:00.365Z,16.57
2018-12-31T18:23:28.774Z,16.03
2018-12-31T18:25:57.200Z,17.17
2018-12-31T18:28:26.302Z,16.75
2018-12-31T18:30:54.763Z,16.67
2018-12-31T18:33:23.170Z,18.30
2018-12-31T18:35:51.585Z,18.60
2018-12-31T18:38:20.947Z,20.50
2018-12-31T18:40:49.874Z,20.27
2018-12-31T18:43:18.289Z,16.70
2018-12-31T18:45:46.702Z,16.27
2018-12-31T18:48:16.088Z,16.57
2018-12-31T18:50:44.563Z,16.00
2018-12-31T18:53:12.989Z,17.00
2018-12-31T18:55:41.441Z,16.10
2018-12-31T18:58:09.877Z,18.77
2018-12-31T19:00:38.332Z,17.73
2018-12-31T19:03:06.753Z,19.17
2018-12-31T19:05:35.995Z,18.05
2018-12-31T19:08:07.530Z,18.70
2018-12-31T19:10:36.512Z,18.05
2018-12-31T19:13:04.931Z,17.07
2018-12-31T19:15:33.422Z,17.97
2018-12-31T19:18:01.848Z,18.10
2018-12-31T19:20:31.463Z,31.43
2018-12-31T19:22:59.910Z,19.07
2018-12-31T19:25:28.364Z,21.10
2018-12-31T19:27:56.786Z,31.80
2018-12-31T19:30:25.308Z,200.47
2018-12-31T19:32:54.383Z,43.07
2018-12-31T19:35:22.805Z,21.10
2018-12-31T19:37:51.217Z,23.07
2018-12-31T19:40:19.664Z,26.77
2018-12-31T19:42:48.086Z,15.57
2018-12-31T19:45:16.534Z,19.87
2018-12-31T19:47:45.874Z,21.77
2018-12-31T19:50:14.326Z,21.40
2018-12-31T19:52:42.766Z,28.07
2018-12-31T19:55:11.277Z,22.20
2018-12-31T19:57:39.691Z,22.97
2018-12-31T20:00:09.197Z,31.87
2018-12-31T20:02:37.622Z,51.77
2018-12-31T20:05:06.205Z,59.07
2018-12-31T20:07:34.645Z,47.75
2018-12-31T20:10:03.143Z,45.57
2018-12-31T20:12:32.264Z,33.08
2018-12-31T20:15:00.949Z,42.55
2018-12-31T20:17:29.388Z,26.40
2018-12-31T20:19:57.803Z,24.10
2018-12-31T20:22:26.248Z,23.52
2018-12-31T20:24:54.652Z,28.20
2018-12-31T20:27:23.154Z,29.63
2018-12-31T20:29:51.598Z,24.40
2018-12-31T20:32:20.278Z,25.27
2018-12-31T20:34:48.747Z,21.62
2018-12-31T20:37:17.166Z,23.97
2018-12-31T20:39:45.678Z,19.40
2018-12-31T20:42:14.114Z,19.37
2018-12-31T20:44:42.529Z,16.70
2018-12-31T20:47:10.973Z,19.27
2018-12-31T20:49:40.324Z,21.35
2018-12-31T20:52:08.839Z,21.27
2018-12-31T20:54:37.626Z,24.97
2018-12-31T20:57:06.043Z,22.87
2018-12-31T20:59:34.463Z,27.73
2018-12-31T21:02:02.918Z,23.00
2018-12-31T21:04:31.364Z,21.63
2018-12-31T21:06:59.946Z,25.68
2018-12-31T21:09:28.933Z,21.60
2018-12-31T21:11:57.662Z,24.17
2018-12-31T21:14:26.113Z,23.33
2018-12-31T21:16:54.972Z,24.18
2018-12-31T21:19:23.424Z,22.17
2018-12-31T21:21:52.125Z,19.20
2018-12-31T21:24:20.639Z,19.60
2018-12-31T21:26:49.996Z,19.90
2018-12-31T21:29:18.409Z,21.30
2018-12-31T21:31:46.878Z,23.60
2018-12-31T21:34:15.771Z,24.63
2018-12-31T21:36:44.994Z,25.17
2018-12-31T21:39:13.424Z,28.03
2018-12-31T21:41:41.960Z,24.50
2018-12-31T21:44:10.410Z,23.20
2018-12-31T21:46:38.864Z,25.57
2018-12-31T21:49:07.283Z,24.80
2018-12-31T21:51:35.738Z,24.80
2018-12-31T21:54:04.467Z,22.77
2018-12-31T21:56:32.941Z,24.50
2018-12-31T21:59:01.387Z,28.87
2018-12-31T22:01:30.226Z,22.30
2018-12-31T22:03:59.518Z,22.98
2018-12-31T22:06:27.960Z,19.20
2018-12-31T22:08:56.388Z,22.63
2018-12-31T22:11:28.966Z,21.00
2018-12-31T22:13:58.060Z,19.47
2018-12-31T22:16:26.550Z,19.20
2018-12-31T22:18:55.143Z,21.70
2018-12-31T22:21:23.586Z,19.73
2018-12-31T22:23:52.010Z,20.90
2018-12-31T22:26:25.195Z,22.00
2018-12-31T22:28:53.662Z,24.57
2018-12-31T22:31:22.099Z,19.63
2018-12-31T22:33:50.619Z,19.50
2018-12-31T22:36:19.045Z,35.67
2018-12-31T22:38:47.479Z,20.70
2018-12-31T22:41:15.896Z,20.00
2018-12-31T22:43:44.331Z,18.37
2018-12-31T22:46:12.755Z,20.93
2018-12-31T22:48:41.177Z,21.87
2018-12-31T22:51:09.634Z,22.65
2018-12-31T22:53:38.523Z,19.23
2018-12-31T22:56:07.019Z,21.00
2018-12-31T22:58:38.492Z,23.30
2018-12-31T23:01:06.916Z,27.33
2018-12-31T23:03:35.685Z,61.10
2018-12-31T23:06:04.104Z,491.83
2018-12-31T23:08:32.528Z,263.33
2018-12-31T23:11:01.046Z,193.43
2018-12-31T23:13:29.732Z,231.43
2018-12-31T23:15:58.203Z,311.92
2018-12-31T23:18:27.195Z,355.65
2018-12-31T23:20:55.651Z,250.53
2018-12-31T23:23:24.103Z,358.20
2018-12-31T23:25:52.535Z,467.47
2018-12-31T23:28:20.982Z,319.25
2018-12-31T23:30:49.449Z,233.40
2018-12-31T23:33:17.900Z,254.80
2018-12-31T23:35:46.326Z,206.17
2018-12-31T23:38:15.228Z,154.98
2018-12-31T23:40:43.653Z,165.30
2018-12-31T23:43:12.098Z,124.07
2018-12-31T23:45:40.986Z,95.63
2018-12-31T23:48:10.206Z,88.42
2018-12-31T23:50:38.719Z,69.40
2018-12-31T23:53:07.136Z,62.10
2018-12-31T23:55:35.642Z,65.57
2018-12-31T23:58:05.203Z,58.55
